Time;durP1;ratioP1;P1;durP2;ratioP2;P2;SDS_P1;SDS_P2;PMS_P1;PMS_P2;Temp;Humidity;BMP_temperature;BMP_pressure;BME280_temperature;BME280_humidity;BME280_pressure;Samples;Min_cycle;Max_cycle;Signal;HPM_P1;HPM_P2
2022/02/04 00:20:11;;;;;;;1.20;1.20;;;;;;;3.28;68.69;100140.80;104050;1277;95679;-74
2022/02/04 00:23:51;;;;;;;1.00;1.00;;;;;;;3.40;69.09;100134.49;103958;1278;140769;-76
2022/02/04 00:26:23;;;;;;;1.10;1.10;;;;;;;3.44;69.11;100133.60;104049;1277;96034;-78
2022/02/04 00:29:16;;;;;;;1.20;1.20;;;;;;;3.42;69.24;100129.75;104024;1277;109338;-76
2022/02/04 00:31:49;;;;;;;1.20;1.20;;;;;;;3.41;69.25;100131.86;103948;1278;139623;-75
2022/02/04 00:34:20;;;;;;;1.20;1.20;;;;;;;3.36;69.33;100124.66;103993;1278;109305;-75
2022/02/04 00:37:01;;;;;;;1.00;1.00;;;;;;;3.36;69.16;100128.00;103937;1278;140529;-78
2022/02/04 00:39:39;;;;;;;1.00;1.00;;;;;;;3.31;69.68;100130.29;104228;1277;95755;-78
2022/02/04 00:42:10;;;;;;;1.00;1.00;;;;;;;3.27;70.15;100128.71;104093;1277;140121;-78
2022/02/04 00:44:40;;;;;;;1.10;1.10;;;;;;;3.30;70.19;100123.27;104193;1277;100544;-76
2022/02/04 00:47:31;;;;;;;1.10;1.10;;;;;;;3.35;70.07;100125.90;103915;1278;140284;-79
2022/02/04 00:50:08;;;;;;;1.00;1.00;;;;;;;3.35;70.00;100124.66;104040;1278;95554;-77
2022/02/04 00:52:49;;;;;;;1.10;1.10;;;;;;;3.34;70.39;100126.95;104020;1277;95286;-76
2022/02/04 00:55:25;;;;;;;1.30;1.30;;;;;;;3.35;70.16;100119.57;103947;1278;140921;-74
2022/02/04 01:06:29;;;;;;;1.10;1.10;;;;;;;3.37;70.30;100111.50;104084;1278;99971;-78
2022/02/04 01:13:09;;;;;;;1.20;1.20;;;;;;;3.41;70.80;100098.70;103988;1278;138675;-79
2022/02/04 01:28:24;;;;;;;1.10;1.10;;;;;;;3.56;71.61;100072.67;104061;1278;109377;-80
2022/02/04 01:30:54;;;;;;;1.10;1.10;;;;;;;3.62;71.35;100066.69;103892;1278;140498;-74
2022/02/04 01:33:23;;;;;;;1.00;1.00;;;;;;;3.63;71.05;100065.80;104045;1278;95159;-74
2022/02/04 01:35:53;;;;;;;1.10;1.10;;;;;;;3.59;71.11;100064.59;103939;1278;139661;-74
2022/02/04 01:38:25;;;;;;;1.10;1.10;;;;;;;3.61;71.31;100059.84;104079;1278;100248;-75
2022/02/04 01:40:54;;;;;;;1.00;1.00;;;;;;;3.61;71.51;100060.20;104165;1278;109225;-78
2022/02/04 01:43:22;;;;;;;0.90;0.90;;;;;;;3.60;71.42;100061.08;103959;1278;139810;-75
2022/02/04 01:45:59;;;;;;;1.00;1.00;;;;;;;3.61;71.99;100063.35;104102;1278;95748;-79
2022/02/04 01:48:27;;;;;;;1.00;1.00;;;;;;;3.70;71.63;100062.45;103989;1278;139210;-77
2022/02/04 01:50:55;;;;;;;1.00;1.00;;;;;;;3.80;71.78;100058.54;104094;1278;99812;-75
2022/02/04 01:53:28;;;;;;;0.90;0.90;;;;;;;3.89;71.36;100058.52;104081;1278;109331;-74
2022/02/04 01:56:07;;;;;;;1.00;1.00;;;;;;;3.84;71.34;100053.42;104127;1277;139535;-75
2022/02/04 01:58:36;;;;;;;1.00;1.00;;;;;;;3.81;71.45;100052.04;104069;1278;95151;-75
2022/02/04 02:01:04;;;;;;;1.10;1.10;;;;;;;3.81;71.38;100047.30;104084;1278;140412;-75
2022/02/04 02:03:33;;;;;;;1.00;1.00;;;;;;;3.85;72.15;100044.98;104076;1278;99877;-82
2022/02/04 02:06:07;;;;;;;0.90;0.90;;;;;;;3.92;71.91;100043.04;104152;1278;139890;-77
2022/02/04 02:08:35;;;;;;;1.00;1.00;;;;;;;3.93;71.82;100040.58;104078;1278;95251;-76
2022/02/04 02:11:02;;;;;;;1.00;1.00;;;;;;;4.00;71.56;100039.66;104117;1278;95248;-75
2022/02/04 02:13:41;;;;;;;1.00;1.00;;;;;;;4.10;71.27;100038.20;103962;1278;139806;-82
2022/02/04 02:33:16;;;;;;;1.00;1.00;;;;;;;4.03;72.28;100030.34;104053;1278;109299;-76
2022/02/04 02:44:38;;;;;;;1.00;1.00;;;;;;;4.33;71.73;100028.73;103812;1278;139599;-73
2022/02/04 02:47:36;;;;;;;1.00;1.00;;;;;;;4.35;72.02;100027.67;104082;1278;109970;-74
2022/02/04 02:58:03;;;;;;;1.10;1.10;;;;;;;4.38;71.93;100020.63;104105;1278;100462;-76
2022/02/04 03:03:08;;;;;;;0.90;0.90;;;;;;;4.34;72.07;100013.45;104073;1278;95513;-75
2022/02/04 03:05:35;;;;;;;1.00;1.00;;;;;;;4.35;72.28;100017.30;104052;1281;95677;-75
2022/02/04 03:08:04;;;;;;;1.00;1.00;;;;;;;4.37;72.23;100014.48;104010;1277;139910;-74
2022/02/04 03:10:32;;;;;;;1.00;1.00;;;;;;;4.35;72.29;100013.27;104068;1278;97342;-81
2022/02/04 03:13:00;;;;;;;1.00;1.00;;;;;;;4.36;72.44;100010.98;103901;1278;141308;-75
2022/02/04 03:15:28;;;;;;;0.90;0.90;;;;;;;4.39;72.51;100014.45;104054;1278;95684;-75
2022/02/04 03:18:19;;;;;;;1.00;1.00;;;;;;;4.48;72.64;100016.86;103925;1278;140612;-81
2022/02/04 03:20:50;;;;;;;0.90;0.90;;;;;;;4.52;72.18;100015.42;104108;1278;110235;-76
2022/02/04 03:23:19;;;;;;;0.90;0.90;;;;;;;4.51;71.79;100009.45;104075;1278;99882;-80
2022/02/04 03:25:53;;;;;;;0.90;0.90;;;;;;;4.48;72.24;100006.30;103963;1277;140156;-77
2022/02/04 03:28:28;;;;;;;0.90;0.90;;;;;;;4.45;72.38;100002.47;104049;1278;95351;-81
2022/02/04 03:30:58;;;;;;;0.90;0.90;;;;;;;4.45;72.48;100005.45;103958;1278;139163;-75
2022/02/04 03:33:28;;;;;;;1.00;1.00;;;;;;;4.48;72.46;100007.53;104194;1278;108541;-82
2022/02/04 03:35:57;;;;;;;1.00;1.00;;;;;;;4.50;72.59;100009.09;103999;1278;140117;-79
2022/02/04 03:38:25;;;;;;;0.90;0.90;;;;;;;4.53;72.32;100003.81;104072;1278;109208;-79
2022/02/04 03:40:52;;;;;;;1.00;1.00;;;;;;;4.56;72.41;100001.51;104060;1277;95687;-74
2022/02/04 03:43:20;;;;;;;0.90;0.90;;;;;;;4.57;72.44;99999.20;103929;1281;139783;-76
2022/02/04 03:45:48;;;;;;;1.00;1.00;;;;;;;4.53;72.78;99998.54;104063;1278;110269;-74
2022/02/04 03:48:16;;;;;;;0.90;0.90;;;;;;;4.54;72.52;99999.58;103968;1278;139092;-83
2022/02/04 03:50:44;;;;;;;0.80;0.80;;;;;;;4.59;72.83;99999.55;104092;1278;109422;-75
2022/02/04 03:53:15;;;;;;;1.00;1.00;;;;;;;4.69;72.96;100001.20;104060;1277;96969;-77
2022/02/04 03:55:44;;;;;;;0.90;0.90;;;;;;;4.79;72.18;100005.70;103940;1278;140631;-73
2022/02/04 03:58:12;;;;;;;0.90;0.90;;;;;;;4.76;72.22;100010.48;104099;1278;110179;-77
2022/02/04 04:00:40;;;;;;;0.80;0.80;;;;;;;4.72;72.10;100006.64;103966;1278;142004;-75
2022/02/04 04:03:08;;;;;;;0.80;0.80;;;;;;;4.67;72.16;100004.40;104173;1278;109465;-76
2022/02/04 04:05:41;;;;;;;0.90;0.90;;;;;;;4.59;72.18;100003.24;104068;1278;95508;-74
2022/02/04 04:08:09;;;;;;;0.90;0.90;;;;;;;4.46;72.79;99999.11;103994;1278;139923;-75
2022/02/04 04:10:41;;;;;;;1.00;1.00;;;;;;;4.44;73.10;100000.70;104097;1278;110181;-78
2022/02/04 04:13:10;;;;;;;0.90;0.90;;;;;;;4.54;73.40;99996.77;103980;1278;140259;-73
2022/02/04 04:15:38;;;;;;;0.90;0.90;;;;;;;4.59;72.87;99996.91;104075;1276;109222;-76
2022/02/04 04:18:06;;;;;;;0.90;0.90;;;;;;;4.56;73.07;99997.98;103985;1278;139277;-73
2022/02/04 04:20:34;;;;;;;0.90;0.90;;;;;;;4.67;73.21;99995.95;104090;1278;95620;-73
2022/02/04 04:23:02;;;;;;;0.80;0.80;;;;;;;4.71;73.06;99995.91;104067;1278;110430;-75
2022/02/04 04:25:29;;;;;;;0.80;0.80;;;;;;;4.75;72.94;99994.30;104024;1278;140034;-77
2022/02/04 04:27:57;;;;;;;0.90;0.90;;;;;;;4.74;72.91;99996.77;104057;1278;109521;-75
2022/02/04 04:30:25;;;;;;;0.90;0.90;;;;;;;4.80;73.09;99993.73;103986;1278;140488;-74
2022/02/04 04:32:55;;;;;;;0.90;0.90;;;;;;;4.79;72.85;99992.69;104071;1278;95696;-74
2022/02/04 04:35:25;;;;;;;0.90;0.90;;;;;;;4.84;73.17;99987.37;104122;1278;109409;-80
2022/02/04 05:29:34;;;;;;;0.90;0.90;;;;;;;4.79;74.17;99961.56;104109;1278;108705;-74
2022/02/04 05:32:03;;;;;;;0.90;0.90;;;;;;;4.83;74.09;99961.33;103983;1278;141517;-74
2022/02/04 05:34:31;;;;;;;0.80;0.80;;;;;;;4.84;73.63;99963.44;104241;1278;108857;-74
2022/02/04 05:37:06;;;;;;;0.90;0.90;;;;;;;4.88;73.89;99965.52;104003;1278;140373;-75
2022/02/04 05:39:44;;;;;;;0.80;0.80;;;;;;;4.95;73.71;99959.98;104085;1278;95255;-77
2022/02/04 05:42:19;;;;;;;0.80;0.80;;;;;;;4.99;73.50;99959.58;103952;1278;139276;-76
2022/02/04 05:44:56;;;;;;;0.90;0.90;;;;;;;4.99;73.47;99958.89;104109;1278;98541;-80
2022/02/04 05:47:24;;;;;;;0.90;0.90;;;;;;;4.96;73.47;99958.75;104178;1278;110230;-81
2022/02/04 05:55:43;;;;;;;0.80;0.80;;;;;;;4.79;73.81;99960.49;104023;1278;141191;-76
2022/02/04 05:58:35;;;;;;;0.90;0.90;;;;;;;4.85;73.82;99960.79;104164;1278;100024;-77
2022/02/04 06:04:38;;;;;;;1.00;1.00;;;;;;;5.05;73.54;99959.70;104105;1278;95769;-78
2022/02/04 06:22:48;;;;;;;1.10;1.10;;;;;;;5.06;73.28;99975.00;104159;1278;110155;-82
2022/02/04 06:25:17;;;;;;;1.00;1.00;;;;;;;5.06;73.24;99978.52;103973;1278;139569;-77
2022/02/04 06:27:45;;;;;;;1.00;1.00;;;;;;;5.02;73.12;99982.44;104062;1281;108516;-76
2022/02/04 06:30:13;;;;;;;0.90;0.90;;;;;;;4.99;73.14;99984.40;103958;1278;138511;-73
2022/02/04 06:32:41;;;;;;;0.80;0.80;;;;;;;5.03;73.82;99986.65;104020;1278;95248;-75
2022/02/04 06:35:10;;;;;;;0.80;0.80;;;;;;;5.11;73.37;99987.27;104031;1278;110094;-75
2022/02/04 06:37:37;;;;;;;0.90;0.90;;;;;;;5.16;73.31;99985.27;104013;1278;138752;-76
2022/02/04 06:40:06;;;;;;;0.90;0.90;;;;;;;5.09;72.98;99991.17;104020;1281;108123;-74
2022/02/04 06:42:34;;;;;;;0.80;0.80;;;;;;;5.07;73.41;99987.31;103964;1278;140337;-76
2022/02/04 06:45:05;;;;;;;1.10;1.10;;;;;;;5.10;73.58;99986.56;104218;1278;95502;-77
2022/02/04 06:47:33;;;;;;;0.80;0.80;;;;;;;5.17;73.39;99989.48;104138;1278;110124;-76
2022/02/04 06:50:01;;;;;;;0.80;0.80;;;;;;;5.14;73.21;99985.83;103982;1281;139764;-78
2022/02/04 06:52:28;;;;;;;0.90;0.90;;;;;;;5.09;73.10;99981.14;104119;1278;108804;-76
2022/02/04 06:54:56;;;;;;;0.90;0.90;;;;;;;5.03;73.57;99977.33;103919;1280;138965;-76
2022/02/04 06:57:24;;;;;;;1.00;1.00;;;;;;;5.00;73.86;99975.23;104072;1278;95795;-76
2022/02/04 06:59:53;;;;;;;0.80;0.80;;;;;;;4.97;73.51;99971.39;103968;1278;138844;-74
2022/02/04 07:02:23;;;;;;;0.90;0.90;;;;;;;5.01;73.94;99967.66;104089;1278;99887;-74
2022/02/04 07:04:51;;;;;;;0.90;0.90;;;;;;;4.98;73.94;99966.64;104133;1278;109897;-81
2022/02/04 07:07:19;;;;;;;0.80;0.80;;;;;;;4.89;74.13;99963.92;103963;1278;138231;-77
2022/02/04 07:09:59;;;;;;;0.90;0.90;;;;;;;4.87;74.81;99967.79;104029;1278;95554;-74
2022/02/04 07:17:55;;;;;;;0.90;0.90;;;;;;;5.07;74.32;99974.30;104039;1278;110267;-74
2022/02/04 07:20:22;;;;;;;0.80;0.80;;;;;;;5.10;74.13;99979.18;103908;1278;139417;-75
2022/02/04 07:22:50;;;;;;;0.90;0.90;;;;;;;5.17;74.26;99975.05;104029;1278;95968;-75
2022/02/04 07:25:18;;;;;;;0.90;0.90;;;;;;;5.23;73.99;99974.30;103954;1278;140167;-75
2022/02/04 07:27:46;;;;;;;0.90;0.90;;;;;;;5.23;73.97;99974.48;104057;1278;98609;-74
2022/02/04 07:30:34;;;;;;;0.90;0.90;;;;;;;5.18;73.99;99976.82;103976;1278;139495;-78
2022/02/04 07:33:13;;;;;;;0.90;0.90;;;;;;;5.15;74.24;99973.15;104077;1278;95351;-74
2022/02/04 07:40:52;;;;;;;0.80;0.80;;;;;;;5.17;74.14;99967.14;103971;1278;139547;-73
2022/02/04 07:41:19;;;;;;;0.80;0.80;;;;;;;5.15;74.31;99963.98;103889;1278;100283;-76
2022/02/04 07:43:48;;;;;;;0.80;0.80;;;;;;;5.22;74.20;99963.58;103773;1278;140572;-75
2022/02/04 07:46:18;;;;;;;0.80;0.80;;;;;;;5.30;74.50;99963.48;104133;1277;96777;-75
2022/02/04 07:48:46;;;;;;;0.80;0.80;;;;;;;5.35;74.15;99969.23;103989;1278;140131;-75
2022/02/04 07:51:14;;;;;;;0.90;0.90;;;;;;;5.34;74.22;99973.45;104169;1278;110260;-79
2022/02/04 07:53:42;;;;;;;0.90;0.90;;;;;;;5.37;74.19;99979.23;104108;1278;99027;-75
2022/02/04 07:56:11;;;;;;;0.80;0.80;;;;;;;5.37;73.95;99979.59;103914;1281;138553;-76
2022/02/04 07:58:39;;;;;;;0.80;0.80;;;;;;;5.43;74.11;99978.45;104123;1278;95335;-77
2022/02/04 08:01:07;;;;;;;0.80;0.80;;;;;;;5.48;74.03;99980.88;103984;1278;139308;-74
2022/02/04 08:03:43;;;;;;;0.80;0.80;;;;;;;5.49;74.05;99981.20;104108;1278;108330;-77
2022/02/04 08:06:16;;;;;;;0.80;0.80;;;;;;;5.51;73.94;99977.48;103966;1278;140316;-77
2022/02/04 08:08:57;;;;;;;0.80;0.80;;;;;;;5.58;74.03;99978.28;104082;1278;109630;-78
2022/02/04 08:20:35;;;;;;;0.80;0.80;;;;;;;5.57;73.97;99975.98;103976;1278;139983;-76
2022/02/04 08:23:50;;;;;;;0.80;0.80;;;;;;;5.66;73.96;99970.60;103926;1278;109150;-78
2022/02/04 08:25:35;;;;;;;0.70;0.70;;;;;;;5.70;73.40;99973.70;103857;1278;140608;-79
2022/02/04 08:51:39;;;;;;;0.70;0.70;;;;;;;5.92;73.27;99954.73;104165;1277;95158;-78
2022/02/04 08:56:43;;;;;;;0.80;0.80;;;;;;;5.96;73.45;99954.87;104042;1278;139147;-75
2022/02/04 09:02:11;;;;;;;0.80;0.80;;;;;;;6.10;73.67;99953.82;104055;1278;139686;-74
2022/02/04 09:04:46;;;;;;;0.70;0.70;;;;;;;6.09;73.36;99957.87;104163;1278;95235;-79
2022/02/04 09:07:18;;;;;;;0.80;0.80;;;;;;;6.05;73.30;99956.34;104049;1278;140093;-77
2022/02/04 09:09:55;;;;;;;0.80;0.80;;;;;;;6.04;73.40;99956.53;104350;1278;106886;-78
2022/02/04 09:20:33;;;;;;;0.70;0.70;;;;;;;6.09;73.39;99951.89;104037;1278;140887;-78
2022/02/04 09:23:01;;;;;;;0.80;0.80;;;;;;;6.07;73.77;99949.80;104109;1278;110371;-80
2022/02/04 09:25:29;;;;;;;0.70;0.70;;;;;;;6.14;73.79;99948.81;103984;1279;138714;-80
2022/02/04 09:27:56;;;;;;;0.70;0.70;;;;;;;6.18;73.60;99945.92;104072;1278;109320;-77
2022/02/04 09:30:24;;;;;;;0.70;0.70;;;;;;;6.23;73.45;99938.09;103964;1279;140375;-74
2022/02/04 09:32:53;;;;;;;0.80;0.80;;;;;;;6.26;73.42;99932.40;104137;1278;95368;-77
2022/02/04 09:35:23;;;;;;;0.70;0.70;;;;;;;6.23;73.69;99929.10;104129;1278;108814;-74
2022/02/04 09:37:53;;;;;;;0.70;0.70;;;;;;;6.22;73.58;99932.82;104022;1278;140772;-78
2022/02/04 09:40:21;;;;;;;0.70;0.70;;;;;;;6.19;73.45;99933.05;103952;1278;292181;-81
2022/02/04 09:42:50;;;;;;;0.80;0.80;;;;;;;6.24;73.54;99932.44;104074;1278;140940;-78
2022/02/04 09:45:20;;;;;;;0.70;0.70;;;;;;;6.27;73.21;99930.09;104187;1278;95667;-76
2022/02/04 09:48:06;;;;;;;0.70;0.70;;;;;;;6.25;73.31;99926.96;104288;1278;108755;-74
2022/02/04 09:50:38;;;;;;;0.70;0.70;;;;;;;6.28;73.55;99921.81;104369;1278;140524;-77
2022/02/04 10:21:07;;;;;;;0.70;0.70;;;;;;;6.47;73.13;99919.89;104196;1278;108081;-76
2022/02/04 10:23:47;;;;;;;0.70;0.70;;;;;;;6.43;72.78;99916.80;104151;1278;95726;-74
2022/02/04 10:26:16;;;;;;;0.70;0.70;;;;;;;6.27;73.01;99910.36;104062;1279;140533;-78
2022/02/04 10:28:45;;;;;;;0.70;0.70;;;;;;;6.27;73.71;99905.06;104257;1282;106691;-74
2022/02/04 10:31:20;;;;;;;0.70;0.70;;;;;;;6.28;73.49;99902.05;104830;1278;140002;-74
2022/02/04 10:34:07;;;;;;;0.70;0.70;;;;;;;6.36;73.62;99904.20;104458;1279;108339;-74
2022/02/04 10:36:43;;;;;;;0.70;0.70;;;;;;;6.41;73.27;99899.90;104012;1278;140888;-79
2022/02/04 10:40:12;;;;;;;0.70;0.70;;;;;;;6.44;73.33;99904.08;104172;1280;97600;-77
2022/02/04 10:53:48;;;;;;;0.70;0.70;;;;;;;6.66;72.43;99908.27;104172;1281;95953;-75
2022/02/04 10:59:47;;;;;;;0.70;0.70;;;;;;;6.46;72.85;99901.55;104052;1278;98689;-79
2022/02/04 11:08:25;;;;;;;0.70;0.70;;;;;;;6.68;73.35;99887.59;104267;1277;141416;-83
2022/02/04 11:11:13;;;;;;;0.70;0.70;;;;;;;6.78;72.91;99887.40;104147;1281;110227;-82
2022/02/04 11:36:40;;;;;;;0.70;0.70;;;;;;;6.54;73.04;99874.61;104268;1281;95959;-76
2022/02/04 11:56:58;;;;;;;0.60;0.60;;;;;;;6.60;73.21;99855.28;104047;1278;140458;-78
2022/02/04 11:59:33;;;;;;;0.60;0.60;;;;;;;6.63;73.32;99853.45;104084;1278;108054;-75
2022/02/04 12:02:21;;;;;;;0.70;0.70;;;;;;;6.70;73.17;99848.55;104084;1278;140396;-75
2022/02/04 12:04:49;;;;;;;0.70;0.70;;;;;;;6.70;73.02;99848.73;104224;1277;95541;-76
2022/02/04 12:07:55;;;;;;;0.70;0.70;;;;;;;6.66;73.15;99852.70;104233;1277;139852;-77
2022/02/04 12:10:29;;;;;;;0.70;0.70;;;;;;;6.60;73.34;99848.05;103832;1282;99051;-76
2022/02/04 12:12:59;;;;;;;0.60;0.60;;;;;;;6.60;73.18;99847.19;103760;1281;108028;-75
2022/02/04 12:15:55;;;;;;;0.70;0.70;;;;;;;6.62;73.40;99844.49;104088;1275;95381;-75
2022/02/04 12:18:48;;;;;;;0.60;0.60;;;;;;;6.63;73.15;99848.36;104222;1277;95780;-75
2022/02/04 12:21:20;;;;;;;0.60;0.60;;;;;;;6.66;73.43;99845.82;104126;1277;141086;-75
2022/02/04 12:23:49;;;;;;;0.60;0.60;;;;;;;6.66;73.15;99845.83;104193;1277;99758;-84
2022/02/04 12:26:33;;;;;;;0.60;0.60;;;;;;;6.68;73.34;99846.33;104317;1277;139001;-79
2022/02/04 12:29:07;;;;;;;0.70;0.70;;;;;;;6.70;73.76;99843.80;104224;1278;95687;-76
2022/02/04 12:31:36;;;;;;;0.60;0.60;;;;;;;6.79;73.49;99843.80;104131;1277;140581;-78
2022/02/04 12:34:14;;;;;;;0.60;0.60;;;;;;;6.74;73.18;99840.19;104252;1277;110121;-77
2022/02/04 12:36:54;;;;;;;0.60;0.60;;;;;;;6.66;73.48;99834.54;104260;1277;100165;-75
2022/02/04 12:39:24;;;;;;;0.80;0.80;;;;;;;6.67;73.62;99832.05;104117;1277;140056;-74
2022/02/04 12:41:57;;;;;;;0.70;0.70;;;;;;;6.70;73.76;99830.92;104286;1277;95179;-76
2022/02/04 12:44:28;;;;;;;0.60;0.60;;;;;;;6.75;73.57;99832.23;104280;1277;138693;-78
2022/02/04 12:47:00;;;;;;;0.60;0.60;;;;;;;6.78;73.50;99833.25;104242;1277;110703;-75
2022/02/04 12:49:34;;;;;;;0.70;0.70;;;;;;;6.84;73.48;99831.17;104206;1277;99789;-81
2022/02/04 12:54:52;;;;;;;0.60;0.60;;;;;;;6.94;73.16;99825.50;104493;1277;95363;-85
2022/02/04 13:09:22;;;;;;;0.80;0.80;;;;;;;6.75;73.14;99816.73;104601;1277;140939;-76
2022/02/04 13:11:20;;;;;;;0.60;0.60;;;;;;;6.81;73.69;99812.37;104272;1277;95457;-76
2022/02/04 13:13:50;;;;;;;0.70;0.70;;;;;;;6.85;73.11;99806.63;104212;1277;141560;-77
2022/02/04 13:16:22;;;;;;;0.60;0.60;;;;;;;6.77;73.26;99800.79;104192;1278;98394;-79
2022/02/04 13:18:51;;;;;;;0.70;0.70;;;;;;;6.77;73.40;99803.80;104206;1277;108922;-76
2022/02/04 13:21:19;;;;;;;0.70;0.70;;;;;;;6.85;73.27;99801.52;104231;1277;138806;-80
2022/02/04 13:23:47;;;;;;;0.60;0.60;;;;;;;6.86;73.11;99801.31;104260;1277;96859;-75
2022/02/04 13:26:15;;;;;;;0.70;0.70;;;;;;;6.80;73.06;99801.25;104175;1277;139889;-77
2022/02/04 13:28:44;;;;;;;0.70;0.70;;;;;;;6.78;73.10;99799.89;104263;1277;99913;-76
2022/02/04 13:31:13;;;;;;;0.60;0.60;;;;;;;6.82;73.30;99793.80;104288;1277;109361;-74
2022/02/04 13:33:44;;;;;;;0.70;0.70;;;;;;;6.86;73.06;99799.02;104300;1276;139996;-78
2022/02/04 13:46:52;;;;;;;0.60;0.60;;;;;;;6.86;73.11;99792.48;104204;1277;95420;-75
2022/02/04 13:52:00;;;;;;;0.60;0.60;;;;;;;6.95;73.14;99789.66;104054;1278;139764;-74
2022/02/04 13:57:39;;;;;;;0.70;0.70;;;;;;;7.01;72.87;99789.54;104125;1278;140559;-74
2022/02/04 14:02:54;;;;;;;0.60;0.60;;;;;;;6.93;72.66;99787.41;104077;1278;212321;-74
2022/02/04 14:05:33;;;;;;;0.70;0.70;;;;;;;6.93;72.46;99792.16;104149;1277;110174;-79
2022/02/04 14:08:10;;;;;;;0.70;0.70;;;;;;;6.92;72.40;99794.49;104059;1277;141463;-75
2022/02/04 14:10:53;;;;;;;0.70;0.70;;;;;;;6.89;72.70;99793.86;104526;1277;108387;-73
2022/02/04 14:13:26;;;;;;;0.60;0.60;;;;;;;6.91;72.72;99788.16;104222;1277;95283;-75
2022/02/04 14:15:58;;;;;;;0.60;0.60;;;;;;;6.99;72.58;99785.86;104613;1275;144655;-74
2022/02/04 14:18:28;;;;;;;0.60;0.60;;;;;;;7.11;72.57;99781.02;104215;1275;110044;-78
2022/02/04 14:20:57;;;;;;;0.70;0.70;;;;;;;7.12;71.99;99787.34;104057;1277;141480;-74
2022/02/04 14:23:25;;;;;;;0.60;0.60;;;;;;;7.10;71.51;99779.98;104174;1277;109642;-73
2022/02/04 14:26:19;;;;;;;0.80;0.80;;;;;;;7.00;71.68;99782.48;104055;1277;139952;-74
2022/02/04 14:32:02;;;;;;;0.70;0.70;;;;;;;6.90;71.85;99782.71;104206;1277;110194;-74
2022/02/04 14:53:24;;;;;;;0.70;0.70;;;;;;;6.78;72.19;99781.72;104198;1277;95229;-75
2022/02/04 14:58:54;;;;;;;0.60;0.60;;;;;;;6.90;71.87;99781.66;104247;1277;108880;-76
2022/02/04 15:04:00;;;;;;;0.70;0.70;;;;;;;6.79;71.67;99776.05;104120;1275;139071;-76
2022/02/04 15:06:35;;;;;;;0.60;0.60;;;;;;;6.75;72.29;99772.97;104271;1277;95694;-74
2022/02/04 15:09:07;;;;;;;0.60;0.60;;;;;;;6.85;72.31;99777.15;104190;1275;138753;-74
2022/02/04 15:11:36;;;;;;;0.60;0.60;;;;;;;6.90;72.12;99772.30;104353;1277;109331;-76
2022/02/04 15:14:06;;;;;;;0.70;0.70;;;;;;;6.96;71.70;99772.52;104163;1275;139205;-76
2022/02/04 15:16:35;;;;;;;0.60;0.60;;;;;;;6.96;71.82;99771.27;104447;1277;109397;-74
2022/02/04 15:19:04;;;;;;;0.60;0.60;;;;;;;7.02;71.79;99773.97;104271;1277;95273;-78
2022/02/04 15:21:32;;;;;;;0.70;0.70;;;;;;;6.98;71.41;99766.80;104121;1277;139130;-77
2022/02/04 15:24:01;;;;;;;0.60;0.60;;;;;;;6.93;71.65;99768.69;104155;1277;109320;-77
2022/02/04 15:26:30;;;;;;;0.70;0.70;;;;;;;7.00;71.85;99775.06;104142;1276;138882;-76
2022/02/04 15:29:03;;;;;;;0.60;0.60;;;;;;;7.00;71.67;99774.36;104145;1277;138815;-74
2022/02/04 15:32:05;;;;;;;0.60;0.60;;;;;;;6.99;71.51;99773.86;104225;1277;95315;-74
2022/02/04 15:34:25;;;;;;;0.70;0.70;;;;;;;6.91;71.47;99771.73;104020;1277;140354;-76
2022/02/04 15:36:54;;;;;;;0.60;0.60;;;;;;;6.85;71.75;99762.86;104293;1275;108725;-76
2022/02/04 15:39:26;;;;;;;0.60;0.60;;;;;;;6.77;71.67;99762.69;104286;1275;100108;-76
2022/02/04 15:41:58;;;;;;;0.60;0.60;;;;;;;6.72;72.30;99766.16;104243;1275;140079;-76
2022/02/04 15:49:51;;;;;;;0.70;0.70;;;;;;;6.83;72.04;99755.16;104278;1275;108694;-74
2022/02/04 16:05:31;;;;;;;0.70;0.70;;;;;;;6.75;71.71;99753.37;104244;1275;140194;-78
2022/02/04 16:07:59;;;;;;;0.60;0.60;;;;;;;6.76;71.94;99753.52;104174;1275;109340;-76
2022/02/04 16:10:37;;;;;;;0.70;0.70;;;;;;;6.74;71.86;99754.98;104153;1274;138580;-80
2022/02/04 16:13:24;;;;;;;0.70;0.70;;;;;;;6.69;71.93;99747.34;104385;1275;95627;-77
2022/02/04 16:16:01;;;;;;;0.70;0.70;;;;;;;6.67;72.09;99746.84;104451;1274;108705;-78
2022/02/04 16:18:37;;;;;;;0.60;0.60;;;;;;;6.64;71.79;99745.66;104169;1274;139242;-81
2022/02/04 16:21:15;;;;;;;0.60;0.60;;;;;;;6.60;72.16;99739.76;104483;1277;109149;-81
2022/02/04 16:28:58;;;;;;;0.60;0.60;;;;;;;6.41;72.48;99736.10;104258;1275;139285;-79
2022/02/04 16:31:26;;;;;;;0.70;0.70;;;;;;;6.41;72.25;99729.21;104194;1275;100588;-74
2022/02/04 16:33:53;;;;;;;0.60;0.60;;;;;;;6.42;72.28;99729.18;104155;1275;108520;-78
2022/02/04 16:36:24;;;;;;;0.70;0.70;;;;;;;6.41;72.10;99725.66;104253;1274;138672;-77
2022/02/04 16:38:53;;;;;;;0.60;0.60;;;;;;;6.38;72.43;99721.15;104116;1275;95611;-74
2022/02/04 16:41:44;;;;;;;0.60;0.60;;;;;;;6.46;72.29;99712.71;104185;1274;141272;-77
2022/02/04 16:44:13;;;;;;;0.70;0.70;;;;;;;6.57;72.33;99714.77;104211;1275;99865;-77
2022/02/04 16:46:41;;;;;;;0.60;0.60;;;;;;;6.62;71.47;99714.30;104183;1275;138768;-76
2022/02/04 16:49:09;;;;;;;0.70;0.70;;;;;;;6.53;71.49;99712.55;104241;1275;95241;-81
2022/02/04 16:51:38;;;;;;;0.70;0.70;;;;;;;6.42;71.63;99709.98;104279;1274;95276;-80
2022/02/04 16:54:07;;;;;;;0.70;0.70;;;;;;;6.37;71.92;99707.77;104141;1275;139311;-74
2022/02/04 16:56:35;;;;;;;0.70;0.70;;;;;;;6.28;72.03;99705.48;104435;1275;99809;-75
2022/02/04 16:59:04;;;;;;;0.60;0.60;;;;;;;6.22;72.09;99706.49;104139;1274;140480;-75
2022/02/04 17:01:32;;;;;;;0.60;0.60;;;;;;;6.25;72.36;99703.96;104408;1274;95244;-78
2022/02/04 17:04:01;;;;;;;0.70;0.70;;;;;;;6.22;72.11;99705.78;104299;1275;95403;-78
2022/02/04 17:06:34;;;;;;;0.70;0.70;;;;;;;6.16;72.26;99710.84;104111;1274;138239;-76
2022/02/04 17:11:44;;;;;;;0.60;0.60;;;;;;;6.10;72.52;99715.02;104045;1275;138867;-77
2022/02/04 17:14:13;;;;;;;0.70;0.70;;;;;;;6.10;72.55;99710.77;104218;1275;95319;-75
2022/02/04 17:16:42;;;;;;;0.70;0.70;;;;;;;6.13;72.71;99708.24;104246;1276;141276;-78
2022/02/04 17:19:19;;;;;;;0.70;0.70;;;;;;;6.16;72.78;99706.60;104165;1277;110236;-73
2022/02/04 17:21:49;;;;;;;0.70;0.70;;;;;;;6.18;72.36;99705.14;104109;1275;100084;-77
2022/02/04 17:24:18;;;;;;;0.70;0.70;;;;;;;6.13;72.68;99706.46;104085;1278;141106;-74
2022/02/04 17:26:46;;;;;;;0.60;0.60;;;;;;;6.13;72.57;99706.30;104332;1275;95700;-76
2022/02/04 17:29:14;;;;;;;0.60;0.60;;;;;;;6.10;72.85;99703.37;103983;1277;138867;-74
2022/02/04 17:31:42;;;;;;;0.90;0.90;;;;;;;6.16;72.70;99697.95;104203;1275;110246;-75
2022/02/04 17:34:12;;;;;;;0.60;0.60;;;;;;;6.17;72.86;99694.23;104173;1275;99634;-74
2022/02/04 17:36:39;;;;;;;0.70;0.70;;;;;;;6.16;72.70;99692.48;104407;1275;138707;-78
2022/02/04 17:39:15;;;;;;;0.70;0.70;;;;;;;6.12;72.73;99692.39;104143;1275;95286;-78
2022/02/04 17:41:45;;;;;;;0.70;0.70;;;;;;;6.13;72.68;99689.71;104108;1277;139157;-76
2022/02/04 17:44:18;;;;;;;0.60;0.60;;;;;;;6.14;72.72;99689.38;104306;1275;110450;-76
2022/02/04 17:46:47;;;;;;;0.60;0.60;;;;;;;6.11;72.97;99692.25;104575;1275;140160;-75
2022/02/04 17:51:54;;;;;;;0.80;0.80;;;;;;;6.06;72.89;99685.64;104134;1276;95311;-82
2022/02/04 17:54:35;;;;;;;0.70;0.70;;;;;;;6.06;73.02;99685.48;104114;1275;138455;-75
2022/02/04 17:57:12;;;;;;;0.70;0.70;;;;;;;6.08;73.07;99684.19;104151;1275;110311;-74
2022/02/04 18:00:06;;;;;;;0.70;0.70;;;;;;;6.08;73.00;99689.84;104016;1277;140303;-83
2022/02/04 18:02:56;;;;;;;0.60;0.60;;;;;;;6.09;73.19;99688.39;104160;1275;109347;-76
2022/02/04 18:07:56;;;;;;;0.70;0.70;;;;;;;6.10;72.82;99682.05;104096;1277;95165;-78
2022/02/04 18:10:24;;;;;;;0.80;0.80;;;;;;;6.09;72.95;99678.00;104209;1275;140220;-73
2022/02/04 18:12:52;;;;;;;0.70;0.70;;;;;;;6.11;72.95;99673.38;104203;1277;99735;-77
2022/02/04 18:15:20;;;;;;;0.60;0.60;;;;;;;6.12;73.01;99677.23;104124;1277;109762;-75
2022/02/04 18:17:48;;;;;;;0.70;0.70;;;;;;;6.12;72.98;99679.01;103944;1277;139557;-76
2022/02/04 18:20:16;;;;;;;0.70;0.70;;;;;;;6.08;73.00;99674.34;104098;1275;95175;-77
2022/02/04 18:22:44;;;;;;;0.70;0.70;;;;;;;6.07;73.05;99667.48;104009;1277;139034;-75
2022/02/04 18:25:12;;;;;;;0.70;0.70;;;;;;;6.08;73.08;99669.75;104111;1277;99972;-75